sensor_id;sensor_type;location;lat;lon;timestamp;P1;durP1;ratioP1;P2;durP2;ratioP2
6356;SDS011;3211;53.452;-2.264;2023-11-21T00:00:49;1.83;;;0.90;;
6356;SDS011;3211;53.452;-2.264;2023-11-21T00:03:37;1.03;;;0.90;;
6356;SDS011;3211;53.452;-2.264;2023-11-21T00:06:25;1.53;;;1.00;;
6356;SDS011;3211;53.452;-2.264;2023-11-21T00:09:13;1.10;;;1.00;;
6356;SDS011;3211;53.452;-2.264;2023-11-21T00:12:01;1.00;;;0.90;;
6356;SDS011;3211;53.452;-2.264;2023-11-21T00:14:48;0.90;;;0.80;;
6356;SDS011;3211;53.452;-2.264;2023-11-21T00:17:36;1.10;;;0.90;;
6356;SDS011;3211;53.452;-2.264;2023-11-21T00:20:23;1.00;;;0.90;;
6356;SDS011;3211;53.452;-2.264;2023-11-21T00:23:12;1.33;;;0.90;;
6356;SDS011;3211;53.452;-2.264;2023-11-21T00:25:59;1.40;;;1.10;;
6356;SDS011;3211;53.452;-2.264;2023-11-21T00:28:46;1.30;;;1.00;;
6356;SDS011;3211;53.452;-2.264;2023-11-21T00:31:34;1.00;;;0.90;;
6356;SDS011;3211;53.452;-2.264;2023-11-21T00:34:21;1.13;;;0.90;;
6356;SDS011;3211;53.452;-2.264;2023-11-21T00:37:08;0.90;;;0.80;;
6356;SDS011;3211;53.452;-2.264;2023-11-21T00:39:57;1.07;;;0.97;;
6356;SDS011;3211;53.452;-2.264;2023-11-21T00:42:44;1.00;;;0.90;;
6356;SDS011;3211;53.452;-2.264;2023-11-21T00:45:31;1.10;;;1.00;;
6356;SDS011;3211;53.452;-2.264;2023-11-21T00:48:19;1.00;;;0.90;;
6356;SDS011;3211;53.452;-2.264;2023-11-21T00:51:06;2.23;;;0.90;;
6356;SDS011;3211;53.452;-2.264;2023-11-21T00:53:53;1.30;;;0.90;;
6356;SDS011;3211;53.452;-2.264;2023-11-21T00:56:42;1.10;;;0.90;;
6356;SDS011;3211;53.452;-2.264;2023-11-21T00:59:29;1.00;;;0.90;;
6356;SDS011;3211;53.452;-2.264;2023-11-21T01:02:17;1.10;;;1.00;;
6356;SDS011;3211;53.452;-2.264;2023-11-21T01:05:04;0.97;;;0.87;;
6356;SDS011;3211;53.452;-2.264;2023-11-21T01:07:53;1.60;;;0.93;;
6356;SDS011;3211;53.452;-2.264;2023-11-21T01:10:40;1.20;;;1.10;;
6356;SDS011;3211;53.452;-2.264;2023-11-21T01:13:29;1.20;;;0.90;;
6356;SDS011;3211;53.452;-2.264;2023-11-21T01:16:16;1.00;;;0.90;;
6356;SDS011;3211;53.452;-2.264;2023-11-21T01:19:03;1.20;;;1.03;;
6356;SDS011;3211;53.452;-2.264;2023-11-21T01:21:51;1.50;;;1.00;;
6356;SDS011;3211;53.452;-2.264;2023-11-21T01:24:38;1.23;;;0.90;;
6356;SDS011;3211;53.452;-2.264;2023-11-21T01:27:25;1.10;;;0.87;;
6356;SDS011;3211;53.452;-2.264;2023-11-21T01:30:14;1.80;;;0.90;;
6356;SDS011;3211;53.452;-2.264;2023-11-21T01:33:01;1.10;;;1.00;;
6356;SDS011;3211;53.452;-2.264;2023-11-21T01:35:49;1.10;;;0.87;;
6356;SDS011;3211;53.452;-2.264;2023-11-21T01:38:36;1.00;;;0.90;;
6356;SDS011;3211;53.452;-2.264;2023-11-21T01:41:23;1.20;;;1.00;;
6356;SDS011;3211;53.452;-2.264;2023-11-21T01:44:12;1.00;;;0.90;;
6356;SDS011;3211;53.452;-2.264;2023-11-21T01:47:00;1.37;;;0.90;;
6356;SDS011;3211;53.452;-2.264;2023-11-21T01:49:50;2.00;;;1.00;;
6356;SDS011;3211;53.452;-2.264;2023-11-21T01:52:38;1.67;;;1.10;;
6356;SDS011;3211;53.452;-2.264;2023-11-21T01:55:26;1.30;;;1.00;;
6356;SDS011;3211;53.452;-2.264;2023-11-21T01:58:15;1.77;;;0.90;;
6356;SDS011;3211;53.452;-2.264;2023-11-21T02:01:03;2.30;;;0.90;;
6356;SDS011;3211;53.452;-2.264;2023-11-21T02:03:52;3.37;;;1.10;;
6356;SDS011;3211;53.452;-2.264;2023-11-21T02:06:41;1.23;;;0.90;;
6356;SDS011;3211;53.452;-2.264;2023-11-21T02:09:28;6.67;;;1.00;;
6356;SDS011;3211;53.452;-2.264;2023-11-21T02:12:16;1.27;;;0.90;;
6356;SDS011;3211;53.452;-2.264;2023-11-21T02:15:04;1.93;;;1.20;;
6356;SDS011;3211;53.452;-2.264;2023-11-21T02:18:00;1.00;;;0.90;;
6356;SDS011;3211;53.452;-2.264;2023-11-21T02:20:49;1.50;;;1.00;;
6356;SDS011;3211;53.452;-2.264;2023-11-21T02:23:38;1.10;;;1.00;;
6356;SDS011;3211;53.452;-2.264;2023-11-21T02:26:29;1.73;;;1.50;;
6356;SDS011;3211;53.452;-2.264;2023-11-21T02:29:16;1.73;;;1.07;;
6356;SDS011;3211;53.452;-2.264;2023-11-21T02:32:07;0.93;;;0.80;;
6356;SDS011;3211;53.452;-2.264;2023-11-21T02:34:56;1.10;;;1.00;;
6356;SDS011;3211;53.452;-2.264;2023-11-21T02:37:46;1.53;;;1.00;;
6356;SDS011;3211;53.452;-2.264;2023-11-21T02:40:35;1.43;;;0.80;;
6356;SDS011;3211;53.452;-2.264;2023-11-21T02:43:22;1.30;;;1.00;;
6356;SDS011;3211;53.452;-2.264;2023-11-21T02:46:09;2.07;;;0.90;;
6356;SDS011;3211;53.452;-2.264;2023-11-21T02:48:56;1.00;;;0.90;;
6356;SDS011;3211;53.452;-2.264;2023-11-21T02:51:44;2.83;;;1.00;;
6356;SDS011;3211;53.452;-2.264;2023-11-21T02:54:31;1.10;;;0.80;;
6356;SDS011;3211;53.452;-2.264;2023-11-21T02:57:23;1.30;;;1.00;;
6356;SDS011;3211;53.452;-2.264;2023-11-21T03:00:10;2.33;;;1.10;;
6356;SDS011;3211;53.452;-2.264;2023-11-21T03:02:58;1.03;;;0.90;;
6356;SDS011;3211;53.452;-2.264;2023-11-21T03:05:45;1.43;;;0.90;;
6356;SDS011;3211;53.452;-2.264;2023-11-21T03:08:33;1.43;;;1.00;;
6356;SDS011;3211;53.452;-2.264;2023-11-21T03:11:20;1.10;;;1.00;;
6356;SDS011;3211;53.452;-2.264;2023-11-21T03:14:09;1.10;;;1.00;;
6356;SDS011;3211;53.452;-2.264;2023-11-21T03:16:57;1.10;;;1.00;;
6356;SDS011;3211;53.452;-2.264;2023-11-21T03:19:44;0.90;;;0.80;;
6356;SDS011;3211;53.452;-2.264;2023-11-21T03:22:31;1.00;;;0.90;;
6356;SDS011;3211;53.452;-2.264;2023-11-21T03:25:18;1.00;;;0.90;;
6356;SDS011;3211;53.452;-2.264;2023-11-21T03:28:06;1.20;;;0.90;;
6356;SDS011;3211;53.452;-2.264;2023-11-21T03:30:55;0.90;;;0.80;;
6356;SDS011;3211;53.452;-2.264;2023-11-21T03:33:43;1.90;;;1.00;;
6356;SDS011;3211;53.452;-2.264;2023-11-21T03:36:31;1.37;;;0.90;;
6356;SDS011;3211;53.452;-2.264;2023-11-21T03:39:19;0.87;;;0.83;;
6356;SDS011;3211;53.452;-2.264;2023-11-21T03:42:07;1.03;;;0.93;;
6356;SDS011;3211;53.452;-2.264;2023-11-21T03:44:54;0.80;;;0.80;;
6356;SDS011;3211;53.452;-2.264;2023-11-21T03:47:43;0.90;;;0.80;;
6356;SDS011;3211;53.452;-2.264;2023-11-21T03:50:31;0.97;;;0.87;;
6356;SDS011;3211;53.452;-2.264;2023-11-21T03:53:18;2.50;;;1.00;;
6356;SDS011;3211;53.452;-2.264;2023-11-21T03:56:06;1.00;;;0.90;;
6356;SDS011;3211;53.452;-2.264;2023-11-21T03:58:53;0.80;;;0.80;;
6356;SDS011;3211;53.452;-2.264;2023-11-21T04:01:41;1.20;;;1.00;;
6356;SDS011;3211;53.452;-2.264;2023-11-21T04:04:29;4.50;;;0.90;;
6356;SDS011;3211;53.452;-2.264;2023-11-21T04:07:17;0.90;;;0.80;;
6356;SDS011;3211;53.452;-2.264;2023-11-21T04:10:04;1.00;;;0.90;;
6356;SDS011;3211;53.452;-2.264;2023-11-21T04:12:54;1.00;;;0.90;;
6356;SDS011;3211;53.452;-2.264;2023-11-21T04:15:41;0.80;;;0.80;;
6356;SDS011;3211;53.452;-2.264;2023-11-21T04:18:28;1.03;;;0.93;;
6356;SDS011;3211;53.452;-2.264;2023-11-21T04:21:17;1.00;;;0.90;;
6356;SDS011;3211;53.452;-2.264;2023-11-21T04:24:04;1.40;;;0.93;;
6356;SDS011;3211;53.452;-2.264;2023-11-21T04:26:52;1.97;;;1.10;;
6356;SDS011;3211;53.452;-2.264;2023-11-21T04:29:40;1.00;;;0.90;;
6356;SDS011;3211;53.452;-2.264;2023-11-21T04:32:27;0.80;;;0.80;;
6356;SDS011;3211;53.452;-2.264;2023-11-21T04:35:15;1.10;;;1.00;;
6356;SDS011;3211;53.452;-2.264;2023-11-21T04:38:03;1.10;;;0.80;;
6356;SDS011;3211;53.452;-2.264;2023-11-21T04:40:51;0.97;;;0.87;;
6356;SDS011;3211;53.452;-2.264;2023-11-21T04:43:38;0.97;;;0.80;;
6356;SDS011;3211;53.452;-2.264;2023-11-21T04:46:25;1.10;;;0.90;;
6356;SDS011;3211;53.452;-2.264;2023-11-21T04:49:12;1.07;;;0.93;;
6356;SDS011;3211;53.452;-2.264;2023-11-21T04:52:00;0.97;;;0.80;;
6356;SDS011;3211;53.452;-2.264;2023-11-21T04:54:50;1.00;;;0.90;;
6356;SDS011;3211;53.452;-2.264;2023-11-21T04:57:39;1.10;;;0.90;;
6356;SDS011;3211;53.452;-2.264;2023-11-21T05:00:27;0.90;;;0.90;;
6356;SDS011;3211;53.452;-2.264;2023-11-21T05:03:14;1.83;;;0.90;;
6356;SDS011;3211;53.452;-2.264;2023-11-21T05:06:01;1.93;;;0.90;;
6356;SDS011;3211;53.452;-2.264;2023-11-21T05:08:50;0.90;;;0.80;;
6356;SDS011;3211;53.452;-2.264;2023-11-21T05:11:40;1.47;;;0.90;;
6356;SDS011;3211;53.452;-2.264;2023-11-21T05:14:27;0.90;;;0.80;;
6356;SDS011;3211;53.452;-2.264;2023-11-21T05:17:14;1.03;;;0.90;;
6356;SDS011;3211;53.452;-2.264;2023-11-21T05:20:02;1.20;;;0.90;;
6356;SDS011;3211;53.452;-2.264;2023-11-21T05:22:53;1.00;;;0.90;;
6356;SDS011;3211;53.452;-2.264;2023-11-21T05:25:41;0.90;;;0.90;;
6356;SDS011;3211;53.452;-2.264;2023-11-21T05:28:29;1.20;;;1.00;;
6356;SDS011;3211;53.452;-2.264;2023-11-21T05:31:16;0.90;;;0.80;;
6356;SDS011;3211;53.452;-2.264;2023-11-21T05:34:04;1.30;;;0.80;;
6356;SDS011;3211;53.452;-2.264;2023-11-21T05:36:51;0.80;;;0.80;;
6356;SDS011;3211;53.452;-2.264;2023-11-21T05:39:39;1.00;;;0.90;;
6356;SDS011;3211;53.452;-2.264;2023-11-21T05:42:26;0.80;;;0.80;;
6356;SDS011;3211;53.452;-2.264;2023-11-21T05:45:14;1.00;;;0.90;;
6356;SDS011;3211;53.452;-2.264;2023-11-21T05:48:02;1.10;;;0.83;;
6356;SDS011;3211;53.452;-2.264;2023-11-21T05:50:50;1.20;;;0.90;;
6356;SDS011;3211;53.452;-2.264;2023-11-21T05:53:37;1.10;;;0.90;;
6356;SDS011;3211;53.452;-2.264;2023-11-21T05:56:24;0.83;;;0.80;;
6356;SDS011;3211;53.452;-2.264;2023-11-21T05:59:11;0.90;;;0.80;;
6356;SDS011;3211;53.452;-2.264;2023-11-21T06:02:00;1.23;;;1.00;;
6356;SDS011;3211;53.452;-2.264;2023-11-21T06:04:47;0.97;;;0.90;;
6356;SDS011;3211;53.452;-2.264;2023-11-21T06:07:34;1.03;;;0.93;;
6356;SDS011;3211;53.452;-2.264;2023-11-21T06:10:22;1.23;;;0.90;;
6356;SDS011;3211;53.452;-2.264;2023-11-21T06:13:10;1.17;;;1.00;;
6356;SDS011;3211;53.452;-2.264;2023-11-21T06:15:57;1.27;;;0.90;;
6356;SDS011;3211;53.452;-2.264;2023-11-21T06:18:47;3.00;;;0.93;;
6356;SDS011;3211;53.452;-2.264;2023-11-21T06:21:34;1.77;;;0.90;;
6356;SDS011;3211;53.452;-2.264;2023-11-21T06:24:21;2.27;;;0.90;;
6356;SDS011;3211;53.452;-2.264;2023-11-21T06:27:09;1.03;;;0.93;;
6356;SDS011;3211;53.452;-2.264;2023-11-21T06:29:56;1.40;;;1.07;;
6356;SDS011;3211;53.452;-2.264;2023-11-21T06:32:43;3.97;;;1.40;;
6356;SDS011;3211;53.452;-2.264;2023-11-21T06:35:33;1.97;;;1.00;;
6356;SDS011;3211;53.452;-2.264;2023-11-21T06:38:20;2.43;;;0.90;;
6356;SDS011;3211;53.452;-2.264;2023-11-21T06:41:08;1.60;;;1.03;;
6356;SDS011;3211;53.452;-2.264;2023-11-21T06:43:55;1.27;;;1.07;;
6356;SDS011;3211;53.452;-2.264;2023-11-21T06:46:43;2.60;;;1.00;;
6356;SDS011;3211;53.452;-2.264;2023-11-21T06:49:31;1.93;;;1.10;;
6356;SDS011;3211;53.452;-2.264;2023-11-21T06:52:19;1.00;;;0.90;;
6356;SDS011;3211;53.452;-2.264;2023-11-21T06:55:07;4.50;;;1.00;;
6356;SDS011;3211;53.452;-2.264;2023-11-21T06:57:55;1.23;;;0.90;;
6356;SDS011;3211;53.452;-2.264;2023-11-21T07:00:43;1.20;;;0.90;;
6356;SDS011;3211;53.452;-2.264;2023-11-21T07:03:32;1.00;;;0.90;;
6356;SDS011;3211;53.452;-2.264;2023-11-21T07:06:19;1.00;;;0.90;;
6356;SDS011;3211;53.452;-2.264;2023-11-21T07:09:08;1.93;;;1.10;;
6356;SDS011;3211;53.452;-2.264;2023-11-21T07:11:56;1.80;;;1.30;;
6356;SDS011;3211;53.452;-2.264;2023-11-21T07:14:44;4.40;;;1.10;;
6356;SDS011;3211;53.452;-2.264;2023-11-21T07:17:31;1.93;;;0.90;;
6356;SDS011;3211;53.452;-2.264;2023-11-21T07:20:18;1.70;;;1.07;;
6356;SDS011;3211;53.452;-2.264;2023-11-21T07:23:06;1.13;;;1.03;;
6356;SDS011;3211;53.452;-2.264;2023-11-21T07:25:55;3.73;;;1.20;;
6356;SDS011;3211;53.452;-2.264;2023-11-21T07:28:43;1.03;;;0.93;;
6356;SDS011;3211;53.452;-2.264;2023-11-21T07:31:30;1.33;;;1.23;;
6356;SDS011;3211;53.452;-2.264;2023-11-21T07:34:19;2.27;;;1.20;;
6356;SDS011;3211;53.452;-2.264;2023-11-21T07:37:07;1.57;;;1.00;;
6356;SDS011;3211;53.452;-2.264;2023-11-21T07:39:55;2.50;;;1.23;;
6356;SDS011;3211;53.452;-2.264;2023-11-21T07:42:44;1.20;;;1.10;;
6356;SDS011;3211;53.452;-2.264;2023-11-21T07:45:31;2.20;;;1.17;;
6356;SDS011;3211;53.452;-2.264;2023-11-21T07:48:18;1.07;;;0.97;;
6356;SDS011;3211;53.452;-2.264;2023-11-21T07:51:06;2.00;;;1.10;;
6356;SDS011;3211;53.452;-2.264;2023-11-21T07:53:53;4.13;;;1.20;;
6356;SDS011;3211;53.452;-2.264;2023-11-21T07:56:41;1.00;;;0.90;;
6356;SDS011;3211;53.452;-2.264;2023-11-21T07:59:30;3.90;;;1.00;;
6356;SDS011;3211;53.452;-2.264;2023-11-21T08:02:17;4.03;;;1.10;;
6356;SDS011;3211;53.452;-2.264;2023-11-21T08:05:05;1.37;;;1.00;;
6356;SDS011;3211;53.452;-2.264;2023-11-21T08:07:53;1.73;;;1.27;;
6356;SDS011;3211;53.452;-2.264;2023-11-21T08:10:40;1.10;;;1.00;;
6356;SDS011;3211;53.452;-2.264;2023-11-21T08:13:28;1.20;;;0.93;;
6356;SDS011;3211;53.452;-2.264;2023-11-21T08:16:18;1.83;;;1.00;;
6356;SDS011;3211;53.452;-2.264;2023-11-21T08:19:05;1.33;;;1.10;;
6356;SDS011;3211;53.452;-2.264;2023-11-21T08:21:54;1.40;;;1.00;;
6356;SDS011;3211;53.452;-2.264;2023-11-21T08:24:41;1.20;;;1.10;;
6356;SDS011;3211;53.452;-2.264;2023-11-21T08:27:28;1.80;;;1.10;;
6356;SDS011;3211;53.452;-2.264;2023-11-21T08:30:15;1.30;;;1.00;;
6356;SDS011;3211;53.452;-2.264;2023-11-21T08:33:06;1.10;;;1.00;;
6356;SDS011;3211;53.452;-2.264;2023-11-21T08:35:53;3.87;;;1.20;;
6356;SDS011;3211;53.452;-2.264;2023-11-21T08:38:41;2.37;;;1.23;;
6356;SDS011;3211;53.452;-2.264;2023-11-21T08:41:28;1.73;;;1.27;;
6356;SDS011;3211;53.452;-2.264;2023-11-21T08:44:16;1.53;;;1.10;;
6356;SDS011;3211;53.452;-2.264;2023-11-21T08:47:03;5.13;;;1.10;;
6356;SDS011;3211;53.452;-2.264;2023-11-21T08:49:52;3.37;;;1.30;;
6356;SDS011;3211;53.452;-2.264;2023-11-21T08:52:39;4.93;;;1.23;;
6356;SDS011;3211;53.452;-2.264;2023-11-21T08:55:27;3.10;;;1.60;;
6356;SDS011;3211;53.452;-2.264;2023-11-21T08:58:14;1.30;;;1.07;;
6356;SDS011;3211;53.452;-2.264;2023-11-21T09:01:03;5.13;;;1.13;;
6356;SDS011;3211;53.452;-2.264;2023-11-21T09:03:51;2.17;;;1.20;;
6356;SDS011;3211;53.452;-2.264;2023-11-21T09:06:40;1.83;;;1.10;;
6356;SDS011;3211;53.452;-2.264;2023-11-21T09:09:27;1.63;;;1.10;;
6356;SDS011;3211;53.452;-2.264;2023-11-21T09:12:15;1.70;;;0.93;;
6356;SDS011;3211;53.452;-2.264;2023-11-21T09:15:04;3.40;;;1.37;;
6356;SDS011;3211;53.452;-2.264;2023-11-21T09:17:55;3.73;;;1.50;;
6356;SDS011;3211;53.452;-2.264;2023-11-21T09:20:42;1.60;;;1.10;;
6356;SDS011;3211;53.452;-2.264;2023-11-21T09:23:31;1.20;;;1.10;;
6356;SDS011;3211;53.452;-2.264;2023-11-21T09:26:19;2.63;;;1.63;;
6356;SDS011;3211;53.452;-2.264;2023-11-21T09:29:06;3.60;;;1.43;;
6356;SDS011;3211;53.452;-2.264;2023-11-21T09:31:53;4.10;;;1.60;;
6356;SDS011;3211;53.452;-2.264;2023-11-21T09:34:44;2.37;;;1.30;;
6356;SDS011;3211;53.452;-2.264;2023-11-21T09:37:31;4.47;;;1.33;;
6356;SDS011;3211;53.452;-2.264;2023-11-21T09:40:21;7.47;;;1.27;;
6356;SDS011;3211;53.452;-2.264;2023-11-21T09:43:09;2.13;;;1.30;;
6356;SDS011;3211;53.452;-2.264;2023-11-21T09:46:02;1.73;;;1.10;;
6356;SDS011;3211;53.452;-2.264;2023-11-21T09:48:56;1.30;;;1.00;;
6356;SDS011;3211;53.452;-2.264;2023-11-21T09:51:46;6.00;;;1.13;;
6356;SDS011;3211;53.452;-2.264;2023-11-21T09:54:35;1.87;;;1.30;;
6356;SDS011;3211;53.452;-2.264;2023-11-21T09:57:24;4.83;;;1.37;;
6356;SDS011;3211;53.452;-2.264;2023-11-21T10:00:12;9.10;;;1.20;;
6356;SDS011;3211;53.452;-2.264;2023-11-21T10:03:03;4.30;;;1.67;;
6356;SDS011;3211;53.452;-2.264;2023-11-21T10:05:50;3.57;;;1.47;;
6356;SDS011;3211;53.452;-2.264;2023-11-21T10:08:39;2.70;;;1.30;;
6356;SDS011;3211;53.452;-2.264;2023-11-21T10:11:27;4.90;;;1.40;;
6356;SDS011;3211;53.452;-2.264;2023-11-21T10:14:18;1.57;;;1.00;;
6356;SDS011;3211;53.452;-2.264;2023-11-21T10:17:07;2.67;;;1.20;;
6356;SDS011;3211;53.452;-2.264;2023-11-21T10:19:57;3.57;;;1.50;;
6356;SDS011;3211;53.452;-2.264;2023-11-21T10:22:45;2.93;;;1.10;;
6356;SDS011;3211;53.452;-2.264;2023-11-21T10:25:32;1.30;;;1.20;;
6356;SDS011;3211;53.452;-2.264;2023-11-21T10:28:21;2.40;;;1.47;;
6356;SDS011;3211;53.452;-2.264;2023-11-21T10:31:09;1.77;;;1.30;;
6356;SDS011;3211;53.452;-2.264;2023-11-21T10:34:11;1.43;;;1.20;;
6356;SDS011;3211;53.452;-2.264;2023-11-21T10:36:59;3.00;;;1.57;;
6356;SDS011;3211;53.452;-2.264;2023-11-21T10:39:58;1.40;;;1.10;;
6356;SDS011;3211;53.452;-2.264;2023-11-21T10:42:45;1.73;;;1.20;;
6356;SDS011;3211;53.452;-2.264;2023-11-21T10:45:33;5.13;;;1.40;;
6356;SDS011;3211;53.452;-2.264;2023-11-21T10:48:21;3.30;;;1.30;;
6356;SDS011;3211;53.452;-2.264;2023-11-21T10:51:09;2.57;;;1.10;;
6356;SDS011;3211;53.452;-2.264;2023-11-21T10:53:56;1.63;;;1.30;;
6356;SDS011;3211;53.452;-2.264;2023-11-21T10:56:45;3.07;;;1.20;;
6356;SDS011;3211;53.452;-2.264;2023-11-21T10:59:36;3.30;;;1.30;;
6356;SDS011;3211;53.452;-2.264;2023-11-21T11:02:24;1.80;;;1.10;;
6356;SDS011;3211;53.452;-2.264;2023-11-21T11:05:14;3.33;;;1.17;;
6356;SDS011;3211;53.452;-2.264;2023-11-21T11:08:04;1.90;;;1.40;;
6356;SDS011;3211;53.452;-2.264;2023-11-21T11:10:52;2.27;;;1.20;;
6356;SDS011;3211;53.452;-2.264;2023-11-21T11:13:42;1.93;;;1.43;;
6356;SDS011;3211;53.452;-2.264;2023-11-21T11:16:31;4.13;;;1.30;;
6356;SDS011;3211;53.452;-2.264;2023-11-21T11:19:20;2.13;;;1.07;;
6356;SDS011;3211;53.452;-2.264;2023-11-21T11:22:12;2.70;;;1.40;;
6356;SDS011;3211;53.452;-2.264;2023-11-21T11:25:16;1.67;;;1.30;;
6356;SDS011;3211;53.452;-2.264;2023-11-21T11:28:17;3.67;;;1.17;;
6356;SDS011;3211;53.452;-2.264;2023-11-21T11:31:10;1.30;;;1.03;;
6356;SDS011;3211;53.452;-2.264;2023-11-21T11:34:08;1.13;;;1.00;;
6356;SDS011;3211;53.452;-2.264;2023-11-21T11:37:17;1.73;;;1.13;;
6356;SDS011;3211;53.452;-2.264;2023-11-21T11:40:06;1.73;;;1.10;;
6356;SDS011;3211;53.452;-2.264;2023-11-21T11:42:57;3.73;;;1.10;;
6356;SDS011;3211;53.452;-2.264;2023-11-21T11:45:45;1.67;;;1.00;;
6356;SDS011;3211;53.452;-2.264;2023-11-21T11:48:37;2.13;;;1.20;;
6356;SDS011;3211;53.452;-2.264;2023-11-21T11:51:25;1.33;;;1.00;;
6356;SDS011;3211;53.452;-2.264;2023-11-21T11:54:14;5.40;;;1.73;;
6356;SDS011;3211;53.452;-2.264;2023-11-21T11:57:02;2.70;;;1.30;;
6356;SDS011;3211;53.452;-2.264;2023-11-21T12:02:57;2.50;;;1.23;;
6356;SDS011;3211;53.452;-2.264;2023-11-21T12:05:47;1.20;;;1.10;;
6356;SDS011;3211;53.452;-2.264;2023-11-21T12:08:38;1.50;;;1.23;;
6356;SDS011;3211;53.452;-2.264;2023-11-21T12:11:31;2.53;;;1.10;;
6356;SDS011;3211;53.452;-2.264;2023-11-21T12:14:20;1.73;;;1.10;;
6356;SDS011;3211;53.452;-2.264;2023-11-21T12:17:08;2.10;;;1.13;;
6356;SDS011;3211;53.452;-2.264;2023-11-21T12:20:01;2.40;;;1.00;;
6356;SDS011;3211;53.452;-2.264;2023-11-21T12:22:49;4.87;;;1.20;;
6356;SDS011;3211;53.452;-2.264;2023-11-21T12:25:37;1.30;;;1.00;;
6356;SDS011;3211;53.452;-2.264;2023-11-21T12:28:26;2.23;;;1.10;;
6356;SDS011;3211;53.452;-2.264;2023-11-21T12:31:13;2.20;;;1.00;;
6356;SDS011;3211;53.452;-2.264;2023-11-21T12:34:01;2.17;;;1.20;;
6356;SDS011;3211;53.452;-2.264;2023-11-21T12:36:48;1.87;;;1.17;;
6356;SDS011;3211;53.452;-2.264;2023-11-21T12:39:38;2.03;;;1.20;;
6356;SDS011;3211;53.452;-2.264;2023-11-21T12:42:25;2.30;;;1.37;;
6356;SDS011;3211;53.452;-2.264;2023-11-21T12:45:20;3.33;;;1.20;;
6356;SDS011;3211;53.452;-2.264;2023-11-21T12:48:11;2.60;;;1.30;;
6356;SDS011;3211;53.452;-2.264;2023-11-21T12:50:58;1.53;;;1.07;;
6356;SDS011;3211;53.452;-2.264;2023-11-21T12:53:48;1.70;;;1.13;;
6356;SDS011;3211;53.452;-2.264;2023-11-21T12:56:37;1.30;;;1.00;;
6356;SDS011;3211;53.452;-2.264;2023-11-21T12:59:25;1.40;;;1.00;;
6356;SDS011;3211;53.452;-2.264;2023-11-21T13:02:13;1.80;;;1.10;;
6356;SDS011;3211;53.452;-2.264;2023-11-21T13:05:01;1.30;;;1.03;;
6356;SDS011;3211;53.452;-2.264;2023-11-21T13:07:51;1.57;;;1.00;;
6356;SDS011;3211;53.452;-2.264;2023-11-21T13:10:40;1.90;;;1.00;;
6356;SDS011;3211;53.452;-2.264;2023-11-21T13:13:29;0.93;;;0.87;;
6356;SDS011;3211;53.452;-2.264;2023-11-21T13:16:17;1.40;;;1.10;;
6356;SDS011;3211;53.452;-2.264;2023-11-21T13:19:07;1.53;;;0.97;;
6356;SDS011;3211;53.452;-2.264;2023-11-21T13:21:54;1.20;;;1.00;;
6356;SDS011;3211;53.452;-2.264;2023-11-21T13:24:44;1.07;;;0.90;;
6356;SDS011;3211;53.452;-2.264;2023-11-21T13:27:31;1.00;;;0.90;;
6356;SDS011;3211;53.452;-2.264;2023-11-21T13:30:19;1.30;;;0.90;;
6356;SDS011;3211;53.452;-2.264;2023-11-21T13:33:11;3.20;;;1.17;;
6356;SDS011;3211;53.452;-2.264;2023-11-21T13:36:05;2.40;;;1.10;;
6356;SDS011;3211;53.452;-2.264;2023-11-21T13:38:54;0.87;;;0.83;;
6356;SDS011;3211;53.452;-2.264;2023-11-21T13:41:44;2.50;;;1.10;;
6356;SDS011;3211;53.452;-2.264;2023-11-21T13:44:33;2.60;;;1.17;;
6356;SDS011;3211;53.452;-2.264;2023-11-21T13:47:23;1.73;;;0.90;;
6356;SDS011;3211;53.452;-2.264;2023-11-21T13:50:15;1.47;;;1.00;;
6356;SDS011;3211;53.452;-2.264;2023-11-21T13:53:09;1.20;;;1.10;;
6356;SDS011;3211;53.452;-2.264;2023-11-21T13:56:03;1.50;;;1.10;;
6356;SDS011;3211;53.452;-2.264;2023-11-21T13:58:51;2.13;;;1.03;;
6356;SDS011;3211;53.452;-2.264;2023-11-21T14:01:39;1.37;;;1.00;;
6356;SDS011;3211;53.452;-2.264;2023-11-21T14:04:40;1.10;;;0.90;;
6356;SDS011;3211;53.452;-2.264;2023-11-21T14:07:39;2.87;;;1.07;;
6356;SDS011;3211;53.452;-2.264;2023-11-21T14:10:34;1.30;;;1.20;;
6356;SDS011;3211;53.452;-2.264;2023-11-21T14:13:28;2.50;;;1.20;;
6356;SDS011;3211;53.452;-2.264;2023-11-21T14:16:15;3.13;;;1.30;;
6356;SDS011;3211;53.452;-2.264;2023-11-21T14:19:03;1.77;;;1.00;;
6356;SDS011;3211;53.452;-2.264;2023-11-21T14:22:01;1.33;;;1.00;;
6356;SDS011;3211;53.452;-2.264;2023-11-21T14:24:48;1.57;;;1.00;;
6356;SDS011;3211;53.452;-2.264;2023-11-21T14:27:39;2.60;;;1.20;;
6356;SDS011;3211;53.452;-2.264;2023-11-21T14:30:26;2.33;;;1.23;;
6356;SDS011;3211;53.452;-2.264;2023-11-21T14:33:15;1.70;;;1.10;;
6356;SDS011;3211;53.452;-2.264;2023-11-21T14:36:02;1.33;;;1.23;;
6356;SDS011;3211;53.452;-2.264;2023-11-21T14:38:50;2.70;;;1.20;;
6356;SDS011;3211;53.452;-2.264;2023-11-21T14:41:37;1.20;;;1.10;;
6356;SDS011;3211;53.452;-2.264;2023-11-21T14:44:26;5.73;;;1.70;;
6356;SDS011;3211;53.452;-2.264;2023-11-21T14:47:18;1.83;;;1.07;;
6356;SDS011;3211;53.452;-2.264;2023-11-21T14:50:10;2.03;;;1.43;;
6356;SDS011;3211;53.452;-2.264;2023-11-21T14:53:04;2.70;;;1.57;;
6356;SDS011;3211;53.452;-2.264;2023-11-21T14:55:52;1.73;;;1.00;;
6356;SDS011;3211;53.452;-2.264;2023-11-21T14:58:43;4.90;;;1.27;;
6356;SDS011;3211;53.452;-2.264;2023-11-21T15:01:30;1.33;;;1.20;;
6356;SDS011;3211;53.452;-2.264;2023-11-21T15:04:29;2.70;;;1.20;;
6356;SDS011;3211;53.452;-2.264;2023-11-21T15:07:21;2.33;;;1.37;;
6356;SDS011;3211;53.452;-2.264;2023-11-21T15:10:11;2.40;;;1.40;;
6356;SDS011;3211;53.452;-2.264;2023-11-21T15:13:00;1.80;;;1.67;;
6356;SDS011;3211;53.452;-2.264;2023-11-21T15:15:48;1.17;;;1.07;;
6356;SDS011;3211;53.452;-2.264;2023-11-21T15:18:35;5.77;;;1.50;;
6356;SDS011;3211;53.452;-2.264;2023-11-21T15:21:22;2.47;;;1.10;;
6356;SDS011;3211;53.452;-2.264;2023-11-21T15:24:10;1.93;;;1.10;;
6356;SDS011;3211;53.452;-2.264;2023-11-21T15:26:59;2.40;;;1.40;;
6356;SDS011;3211;53.452;-2.264;2023-11-21T15:29:49;1.37;;;1.20;;
6356;SDS011;3211;53.452;-2.264;2023-11-21T15:32:36;1.50;;;1.20;;
6356;SDS011;3211;53.452;-2.264;2023-11-21T15:35:25;3.63;;;1.10;;
6356;SDS011;3211;53.452;-2.264;2023-11-21T15:38:13;2.80;;;1.23;;
6356;SDS011;3211;53.452;-2.264;2023-11-21T15:41:00;1.23;;;1.10;;
6356;SDS011;3211;53.452;-2.264;2023-11-21T15:43:49;5.87;;;1.50;;
6356;SDS011;3211;53.452;-2.264;2023-11-21T15:46:36;2.33;;;1.20;;
6356;SDS011;3211;53.452;-2.264;2023-11-21T15:49:26;4.90;;;1.40;;
6356;SDS011;3211;53.452;-2.264;2023-11-21T15:52:15;2.00;;;1.10;;
6356;SDS011;3211;53.452;-2.264;2023-11-21T15:55:02;1.90;;;1.00;;
6356;SDS011;3211;53.452;-2.264;2023-11-21T15:57:50;1.00;;;0.90;;
6356;SDS011;3211;53.452;-2.264;2023-11-21T16:00:39;1.03;;;0.93;;
6356;SDS011;3211;53.452;-2.264;2023-11-21T16:03:27;1.40;;;1.30;;
6356;SDS011;3211;53.452;-2.264;2023-11-21T16:06:17;2.27;;;1.43;;
6356;SDS011;3211;53.452;-2.264;2023-11-21T16:09:04;1.90;;;1.20;;
6356;SDS011;3211;53.452;-2.264;2023-11-21T16:12:00;2.27;;;1.10;;
6356;SDS011;3211;53.452;-2.264;2023-11-21T16:14:48;2.13;;;1.60;;
6356;SDS011;3211;53.452;-2.264;2023-11-21T16:17:37;3.67;;;2.03;;
6356;SDS011;3211;53.452;-2.264;2023-11-21T16:20:27;1.83;;;1.50;;
6356;SDS011;3211;53.452;-2.264;2023-11-21T16:23:14;1.50;;;1.20;;
6356;SDS011;3211;53.452;-2.264;2023-11-21T16:26:01;2.13;;;1.40;;
6356;SDS011;3211;53.452;-2.264;2023-11-21T16:28:50;8.60;;;1.40;;
6356;SDS011;3211;53.452;-2.264;2023-11-21T16:31:37;4.57;;;1.53;;
6356;SDS011;3211;53.452;-2.264;2023-11-21T16:34:26;2.93;;;1.70;;
6356;SDS011;3211;53.452;-2.264;2023-11-21T16:37:13;3.17;;;1.50;;
6356;SDS011;3211;53.452;-2.264;2023-11-21T16:40:01;3.63;;;1.80;;
6356;SDS011;3211;53.452;-2.264;2023-11-21T16:42:52;2.43;;;1.43;;
6356;SDS011;3211;53.452;-2.264;2023-11-21T16:45:40;3.20;;;1.60;;
6356;SDS011;3211;53.452;-2.264;2023-11-21T16:48:29;1.63;;;1.43;;
6356;SDS011;3211;53.452;-2.264;2023-11-21T16:51:18;3.47;;;1.40;;
6356;SDS011;3211;53.452;-2.264;2023-11-21T16:54:05;3.20;;;1.77;;
6356;SDS011;3211;53.452;-2.264;2023-11-21T16:56:54;1.97;;;1.30;;
6356;SDS011;3211;53.452;-2.264;2023-11-21T16:59:41;2.10;;;1.70;;
6356;SDS011;3211;53.452;-2.264;2023-11-21T17:02:29;3.50;;;1.63;;
6356;SDS011;3211;53.452;-2.264;2023-11-21T17:05:17;2.13;;;1.43;;
6356;SDS011;3211;53.452;-2.264;2023-11-21T17:08:06;2.50;;;1.57;;
6356;SDS011;3211;53.452;-2.264;2023-11-21T17:11:05;6.80;;;3.37;;
6356;SDS011;3211;53.452;-2.264;2023-11-21T17:13:59;3.80;;;2.03;;